createdAt,value
2018-10-17T00:01:34.721Z,16.33
2018-10-17T00:04:03.397Z,16.90
2018-10-17T00:06:32.075Z,17.87
2018-10-17T00:09:00.845Z,17.43
2018-10-17T00:11:29.496Z,18.80
2018-10-17T00:13:58.199Z,18.27
2018-10-17T00:16:26.827Z,18.60
2018-10-17T00:18:55.524Z,18.67
2018-10-17T00:21:24.185Z,19.50
2018-10-17T00:23:52.880Z,18.97
2018-10-17T00:26:21.571Z,18.13
2018-10-17T00:30:19.579Z,18.33
2018-10-17T00:32:48.300Z,18.37
2018-10-17T00:35:17.274Z,18.33
2018-10-17T00:37:45.941Z,18.33
2018-10-17T00:40:14.727Z,18.37
2018-10-17T00:42:43.429Z,19.07
2018-10-17T00:45:12.146Z,18.30
2018-10-17T00:47:41.386Z,18.73
2018-10-17T00:50:10.152Z,19.73
2018-10-17T00:52:38.832Z,19.10
2018-10-17T00:55:07.634Z,19.37
2018-10-17T00:57:36.288Z,19.73
2018-10-17T01:00:08.388Z,19.40
2018-10-17T01:02:37.165Z,19.07
2018-10-17T01:05:06.813Z,19.97
2018-10-17T01:07:35.466Z,20.17
2018-10-17T01:10:04.194Z,19.00
2018-10-17T01:12:32.904Z,18.53
2018-10-17T01:15:01.622Z,19.03
2018-10-17T01:17:30.321Z,19.03
2018-10-17T01:19:59.020Z,17.63
2018-10-17T01:22:27.665Z,18.93
2018-10-17T01:24:56.445Z,18.17
2018-10-17T01:27:25.070Z,18.10
2018-10-17T01:29:53.806Z,19.10
2018-10-17T01:32:22.561Z,18.83
2018-10-17T01:34:51.294Z,18.70
2018-10-17T01:37:19.976Z,18.20
2018-10-17T01:39:48.691Z,17.53
2018-10-17T01:42:17.405Z,18.63
2018-10-17T01:44:46.073Z,18.10
2018-10-17T01:47:14.977Z,19.37
2018-10-17T01:49:43.925Z,18.77
2018-10-17T01:52:12.671Z,17.97
2018-10-17T01:54:41.356Z,17.43
2018-10-17T01:57:10.025Z,16.33
2018-10-17T01:59:38.746Z,17.37
2018-10-17T02:02:07.463Z,17.43
2018-10-17T02:04:36.124Z,16.57
2018-10-17T02:07:04.937Z,16.60
2018-10-17T02:09:33.605Z,17.53
2018-10-17T02:12:02.273Z,17.43
2018-10-17T02:14:31.021Z,16.77
2018-10-17T02:16:59.729Z,17.37
2018-10-17T02:19:28.399Z,17.07
2018-10-17T02:21:57.152Z,16.50
2018-10-17T02:24:25.818Z,16.10
2018-10-17T02:26:54.537Z,16.90
2018-10-17T02:29:23.240Z,15.80
2018-10-17T02:31:51.923Z,16.50
2018-10-17T02:34:20.596Z,16.60
2018-10-17T02:36:49.325Z,17.10
2018-10-17T02:39:17.949Z,16.20
2018-10-17T02:41:46.599Z,16.83
2018-10-17T02:44:15.263Z,15.63
2018-10-17T02:46:43.980Z,17.20
2018-10-17T02:49:12.765Z,16.07
2018-10-17T02:51:41.412Z,15.87
2018-10-17T02:54:10.113Z,16.43
2018-10-17T02:56:38.818Z,15.97
2018-10-17T02:59:08.502Z,16.57
2018-10-17T03:01:37.198Z,16.60
2018-10-17T03:04:05.960Z,17.27
2018-10-17T03:06:34.659Z,16.33
2018-10-17T03:09:03.715Z,15.70
2018-10-17T03:11:32.466Z,17.00
2018-10-17T03:14:01.633Z,16.90
2018-10-17T03:16:30.308Z,16.70
2018-10-17T03:18:59.354Z,17.10
2018-10-17T03:21:27.967Z,16.30
2018-10-17T03:23:56.664Z,17.07
2018-10-17T03:26:25.403Z,16.53
2018-10-17T03:28:54.182Z,17.20
2018-10-17T03:31:22.905Z,16.23
2018-10-17T03:33:51.590Z,15.50
2018-10-17T03:36:20.294Z,16.90
2018-10-17T03:38:48.930Z,16.63
2018-10-17T03:41:17.617Z,16.37
2018-10-17T03:43:46.284Z,16.20
2018-10-17T03:46:21.143Z,17.17
2018-10-17T03:48:49.849Z,17.10
2018-10-17T03:51:18.684Z,16.23
2018-10-17T03:53:47.364Z,16.77
2018-10-17T03:56:15.978Z,17.80
2018-10-17T03:58:44.662Z,19.90
2018-10-17T04:01:13.469Z,21.47
2018-10-17T04:03:42.081Z,17.67
2018-10-17T04:06:10.768Z,18.03
2018-10-17T04:09:14.719Z,17.53
2018-10-17T04:11:43.437Z,17.60
2018-10-17T04:14:12.191Z,18.97
2018-10-17T04:16:40.982Z,18.07
2018-10-17T04:19:09.719Z,19.23
2018-10-17T04:21:38.338Z,19.80
2018-10-17T04:24:07.201Z,19.20
2018-10-17T04:26:35.971Z,19.33
2018-10-17T04:29:04.722Z,18.80
2018-10-17T04:31:33.497Z,17.60
2018-10-17T04:34:02.197Z,19.23
2018-10-17T04:36:30.884Z,18.03
2018-10-17T04:38:59.544Z,18.67
2018-10-17T04:41:28.211Z,18.13
2018-10-17T04:43:56.884Z,18.47
2018-10-17T04:46:25.581Z,19.87
2018-10-17T04:48:54.678Z,19.63
2018-10-17T04:51:23.390Z,18.73
2018-10-17T04:53:52.068Z,19.33
2018-10-17T04:56:20.823Z,19.37
2018-10-17T04:58:49.506Z,18.77
2018-10-17T05:01:18.247Z,18.97
2018-10-17T05:03:46.900Z,17.07
2018-10-17T05:06:16.691Z,18.93
2018-10-17T05:08:45.404Z,17.77
2018-10-17T05:11:14.324Z,17.93
2018-10-17T05:13:42.961Z,18.73
2018-10-17T05:16:11.636Z,18.63
2018-10-17T05:18:40.377Z,19.07
2018-10-17T05:21:09.113Z,17.37
2018-10-17T05:23:37.961Z,18.40
2018-10-17T05:26:06.905Z,17.57
2018-10-17T05:28:35.564Z,19.20
2018-10-17T05:31:04.375Z,19.57
2018-10-17T05:33:33.124Z,20.90
2018-10-17T05:36:01.840Z,22.30
2018-10-17T05:38:30.530Z,27.50
2018-10-17T05:40:59.247Z,26.43
2018-10-17T05:43:28.028Z,25.67
2018-10-17T05:45:56.749Z,33.30
2018-10-17T05:48:25.436Z,30.10
2018-10-17T05:50:55.179Z,29.43
2018-10-17T05:53:24.157Z,28.37
2018-10-17T05:55:52.905Z,27.53
2018-10-17T05:58:21.659Z,27.23
2018-10-17T06:00:50.348Z,28.57
2018-10-17T06:03:19.022Z,26.63
2018-10-17T06:05:47.735Z,26.40
2018-10-17T06:08:16.411Z,28.20
2018-10-17T06:10:45.138Z,35.57
2018-10-17T06:13:13.999Z,36.13
2018-10-17T06:15:42.687Z,28.33
2018-10-17T06:18:11.304Z,29.03
2018-10-17T06:20:40.160Z,23.40
2018-10-17T06:23:08.588Z,26.40
2018-10-17T06:25:37.267Z,26.50
2018-10-17T06:28:05.977Z,26.00
2018-10-17T06:30:34.845Z,23.87
2018-10-17T06:33:03.539Z,23.43
2018-10-17T06:35:32.275Z,21.97
2018-10-17T06:38:00.981Z,22.80
2018-10-17T06:40:29.619Z,23.23
2018-10-17T06:42:58.315Z,22.57
2018-10-17T06:45:27.027Z,22.80
2018-10-17T06:47:55.692Z,22.70
2018-10-17T06:50:24.369Z,22.50
2018-10-17T06:52:53.180Z,22.80
2018-10-17T06:55:21.984Z,22.90
2018-10-17T06:57:50.786Z,21.50
2018-10-17T07:00:23.762Z,22.37
2018-10-17T07:02:52.847Z,22.77
2018-10-17T07:05:21.855Z,22.27
2018-10-17T07:07:50.600Z,22.60
2018-10-17T07:10:19.481Z,22.40
2018-10-17T07:12:48.154Z,25.60
2018-10-17T07:15:16.880Z,24.60
2018-10-17T07:17:45.528Z,26.80
2018-10-17T07:20:14.217Z,23.77
2018-10-17T07:22:42.899Z,23.77
2018-10-17T07:25:11.690Z,23.63
2018-10-17T07:27:40.328Z,22.63
2018-10-17T07:30:10.056Z,22.83
2018-10-17T07:32:38.819Z,21.60
2018-10-17T07:35:08.699Z,21.70
2018-10-17T07:37:37.645Z,21.80
2018-10-17T07:40:07.234Z,22.20
2018-10-17T07:42:36.322Z,20.13
2018-10-17T07:45:05.470Z,19.90
2018-10-17T07:47:34.837Z,19.60
2018-10-17T07:50:03.765Z,17.27
2018-10-17T07:52:32.465Z,18.90
2018-10-17T07:55:06.246Z,18.77
2018-10-17T07:57:34.919Z,18.10
2018-10-17T08:00:07.544Z,19.40
2018-10-17T08:02:36.327Z,20.50
2018-10-17T08:05:05.101Z,19.60
2018-10-17T08:07:33.790Z,19.90
2018-10-17T08:10:02.541Z,19.90
2018-10-17T08:12:31.352Z,21.47
2018-10-17T08:15:00.949Z,20.33
2018-10-17T08:17:29.664Z,21.27
2018-10-17T08:19:58.445Z,21.33
2018-10-17T08:22:27.083Z,22.00
2018-10-17T08:24:55.921Z,20.47
2018-10-17T08:27:24.728Z,21.27
2018-10-17T08:29:53.415Z,23.03
2018-10-17T08:32:22.153Z,22.53
2018-10-17T08:34:50.885Z,23.00
2018-10-17T08:37:20.032Z,22.50
2018-10-17T08:39:48.387Z,22.23
2018-10-17T08:42:17.061Z,22.13
2018-10-17T08:44:45.806Z,21.60
2018-10-17T08:47:14.643Z,23.00
2018-10-17T08:49:43.461Z,22.60
2018-10-17T08:52:12.100Z,22.83
2018-10-17T08:54:40.840Z,22.37
2018-10-17T08:57:09.661Z,21.80
2018-10-17T09:04:27.901Z,19.80
2018-10-17T09:06:56.880Z,19.83
2018-10-17T09:09:25.656Z,21.20
2018-10-17T09:11:55.015Z,19.40
2018-10-17T09:15:09.113Z,16.90
2018-10-17T09:17:38.037Z,16.80
2018-10-17T09:20:08.322Z,18.57
2018-10-17T09:22:36.903Z,16.93
2018-10-17T09:25:06.025Z,17.50
2018-10-17T09:27:34.856Z,18.97
2018-10-17T09:30:07.178Z,17.40
2018-10-17T09:32:35.962Z,15.53
2018-10-17T09:35:06.177Z,17.97
2018-10-17T09:37:34.956Z,18.73
2018-10-17T09:40:03.856Z,16.67
2018-10-17T09:42:33.297Z,17.57
2018-10-17T09:45:02.211Z,16.50
2018-10-17T09:47:31.238Z,16.27
2018-10-17T09:50:00.148Z,17.40
2018-10-17T09:52:28.938Z,15.57
2018-10-17T09:54:57.759Z,13.90
2018-10-17T09:57:26.570Z,12.10
2018-10-17T09:59:55.492Z,12.20
2018-10-17T10:02:24.395Z,10.60
2018-10-17T10:04:53.154Z,9.57
2018-10-17T10:07:21.946Z,9.30
2018-10-17T10:09:50.680Z,9.60
2018-10-17T10:12:19.576Z,9.20
2018-10-17T10:14:48.426Z,8.90
2018-10-17T10:17:17.562Z,8.53
2018-10-17T10:19:46.346Z,7.90
2018-10-17T10:22:15.312Z,7.72
2018-10-17T10:24:44.223Z,7.33
2018-10-17T10:27:13.090Z,6.78
2018-10-17T10:29:41.997Z,10.00
2018-10-17T10:32:10.792Z,7.08
2018-10-17T10:34:39.633Z,7.03
2018-10-17T10:37:08.544Z,7.83
2018-10-17T10:39:37.361Z,5.80
2018-10-17T10:42:06.773Z,6.83
2018-10-17T10:44:35.570Z,6.00
2018-10-17T10:47:04.437Z,4.80
2018-10-17T10:49:33.287Z,5.65
2018-10-17T10:52:02.096Z,4.42
2018-10-17T10:54:30.904Z,4.67
2018-10-17T10:56:59.785Z,5.90
2018-10-17T10:59:28.645Z,8.43
2018-10-17T11:01:57.487Z,5.70
2018-10-17T11:04:26.306Z,5.70
2018-10-17T11:06:55.168Z,6.20
2018-10-17T11:09:28.635Z,6.30
2018-10-17T11:11:57.459Z,5.80
2018-10-17T11:14:26.473Z,6.45
2018-10-17T11:16:55.215Z,6.17
2018-10-17T11:19:24.009Z,6.12
2018-10-17T11:21:52.899Z,6.00
2018-10-17T11:24:21.701Z,6.25
2018-10-17T11:26:50.557Z,6.87
2018-10-17T11:29:19.487Z,5.87
2018-10-17T11:31:48.439Z,6.20
2018-10-17T11:34:18.554Z,6.53
2018-10-17T11:36:48.386Z,6.30
2018-10-17T11:39:17.329Z,6.47
2018-10-17T11:41:46.885Z,6.97
2018-10-17T11:44:17.245Z,7.78
2018-10-17T11:46:46.220Z,6.92
2018-10-17T11:49:15.002Z,7.45
2018-10-17T11:51:43.909Z,7.33
2018-10-17T11:54:12.805Z,7.05
2018-10-17T11:56:41.692Z,6.97
2018-10-17T11:59:10.599Z,7.00
2018-10-17T12:01:39.379Z,6.95
2018-10-17T12:04:08.521Z,7.55
2018-10-17T12:06:37.349Z,7.05
2018-10-17T12:09:08.094Z,7.85
2018-10-17T12:11:36.877Z,6.92
2018-10-17T12:14:05.936Z,7.65
2018-10-17T12:16:34.703Z,6.80
2018-10-17T12:19:04.120Z,7.40
2018-10-17T12:21:33.112Z,7.05
2018-10-17T12:24:02.036Z,5.83
2018-10-17T12:26:45.494Z,6.45
2018-10-17T12:29:14.318Z,6.00
2018-10-17T12:31:43.132Z,5.95
2018-10-17T12:34:12.015Z,5.80
2018-10-17T12:36:41.033Z,6.15
2018-10-17T12:39:11.942Z,6.50
2018-10-17T12:41:41.097Z,6.05
2018-10-17T12:44:09.769Z,6.30
2018-10-17T12:46:38.764Z,6.58
2018-10-17T12:49:07.632Z,5.90
2018-10-17T12:51:36.465Z,5.37
2018-10-17T12:54:05.596Z,5.47
2018-10-17T12:56:34.492Z,5.90
2018-10-17T12:59:03.479Z,5.70
2018-10-17T13:01:32.242Z,5.90
2018-10-17T13:04:01.090Z,6.50
2018-10-17T13:06:29.914Z,6.25
2018-10-17T13:08:58.726Z,5.65
2018-10-17T13:11:27.712Z,5.70
2018-10-17T13:13:56.574Z,5.70
2018-10-17T13:16:25.546Z,5.80
2018-10-17T13:18:54.404Z,5.35
2018-10-17T13:21:23.272Z,6.42
2018-10-17T13:23:52.138Z,5.87
2018-10-17T13:26:20.924Z,5.90
2018-10-17T13:28:49.953Z,7.08
2018-10-17T13:31:18.947Z,6.37
2018-10-17T13:33:47.837Z,6.97
2018-10-17T13:36:16.689Z,6.47
2018-10-17T13:38:45.703Z,7.12
2018-10-17T13:41:14.529Z,6.92
2018-10-17T13:43:43.266Z,6.92
2018-10-17T13:46:12.097Z,7.00
2018-10-17T13:48:40.962Z,7.15
2018-10-17T13:51:09.914Z,6.70
2018-10-17T13:53:38.751Z,7.25
2018-10-17T13:56:08.649Z,6.83
2018-10-17T13:58:37.534Z,6.95
2018-10-17T14:01:06.762Z,6.37
2018-10-17T14:03:35.511Z,7.28
2018-10-17T14:06:04.447Z,6.97
2018-10-17T14:08:33.684Z,6.83
2018-10-17T14:11:02.488Z,6.50
2018-10-17T14:13:31.404Z,6.15
2018-10-17T14:16:00.182Z,6.47
2018-10-17T14:18:29.507Z,6.87
2018-10-17T14:20:58.361Z,6.70
2018-10-17T14:23:27.225Z,7.30
2018-10-17T14:25:55.882Z,7.15
2018-10-17T14:28:24.579Z,7.08
2018-10-17T14:30:53.269Z,6.00
2018-10-17T14:33:22.037Z,6.20
2018-10-17T14:35:50.739Z,6.55
2018-10-17T14:38:19.501Z,5.58
2018-10-17T14:40:48.354Z,6.28
2018-10-17T14:43:17.510Z,6.28
2018-10-17T14:45:46.323Z,6.25
2018-10-17T14:48:15.065Z,5.92
2018-10-17T14:50:43.715Z,6.50
2018-10-17T14:53:12.520Z,6.28
2018-10-17T14:55:41.174Z,5.92
2018-10-17T14:58:09.842Z,6.30
2018-10-17T15:00:38.602Z,6.70
2018-10-17T15:03:07.359Z,5.75
2018-10-17T15:05:36.106Z,5.57
2018-10-17T15:08:04.957Z,5.77
2018-10-17T15:10:33.748Z,5.15
2018-10-17T15:13:02.385Z,5.07
2018-10-17T15:15:31.224Z,5.30
2018-10-17T15:18:00.256Z,5.78
2018-10-17T15:20:29.603Z,6.47
2018-10-17T15:22:58.330Z,6.83
2018-10-17T15:25:27.041Z,6.67
2018-10-17T15:27:55.813Z,7.03
2018-10-17T15:30:24.555Z,8.23
2018-10-17T15:32:53.310Z,8.53
2018-10-17T15:35:22.027Z,8.27
2018-10-17T15:37:50.834Z,7.70
2018-10-17T15:40:19.590Z,7.90
2018-10-17T15:42:48.349Z,7.53
2018-10-17T15:45:17.107Z,7.43
2018-10-17T15:47:45.953Z,7.47
2018-10-17T15:50:14.713Z,7.20
2018-10-17T15:52:44.302Z,6.83
2018-10-17T15:55:13.155Z,6.70
2018-10-17T15:57:41.976Z,6.87
2018-10-17T16:00:11.692Z,6.20
2018-10-17T16:02:40.471Z,6.83
2018-10-17T16:05:10.892Z,6.83
2018-10-17T16:07:39.665Z,6.67
2018-10-17T16:10:08.680Z,7.37
2018-10-17T16:12:37.967Z,7.37
2018-10-17T16:15:07.930Z,7.43
2018-10-17T16:17:36.671Z,7.53
2018-10-17T16:20:06.748Z,8.10
2018-10-17T16:22:35.507Z,7.87
2018-10-17T16:25:04.444Z,7.80
2018-10-17T16:27:34.108Z,7.57
2018-10-17T16:30:06.530Z,7.90
2018-10-17T16:32:35.243Z,12.93
2018-10-17T16:35:04.043Z,7.90
2018-10-17T16:37:32.824Z,8.33
2018-10-17T16:40:01.588Z,8.40
2018-10-17T16:42:30.314Z,7.83
2018-10-17T16:44:59.029Z,8.50
2018-10-17T16:47:28.048Z,7.97
2018-10-17T16:49:56.722Z,8.63
2018-10-17T16:52:25.413Z,9.27
2018-10-17T16:54:54.071Z,9.40
2018-10-17T16:57:22.745Z,9.10
2018-10-17T16:59:51.489Z,9.93
2018-10-17T17:02:20.226Z,8.07
2018-10-17T17:04:48.904Z,8.70
2018-10-17T17:07:17.580Z,8.37
2018-10-17T17:09:46.440Z,7.90
2018-10-17T17:12:15.178Z,9.73
2018-10-17T17:14:43.978Z,8.57
2018-10-17T17:17:12.815Z,9.80
2018-10-17T17:19:41.548Z,10.77
2018-10-17T17:22:10.254Z,10.63
2018-10-17T17:24:58.063Z,16.73
2018-10-17T17:27:26.842Z,11.53
2018-10-17T17:29:55.614Z,11.67
2018-10-17T17:32:24.227Z,10.30
2018-10-17T17:34:52.952Z,10.17
2018-10-17T17:37:21.623Z,11.03
2018-10-17T17:39:50.383Z,9.17
2018-10-17T17:42:19.251Z,10.37
2018-10-17T17:44:47.920Z,8.83
2018-10-17T17:47:16.645Z,9.87
2018-10-17T17:49:45.326Z,9.73
2018-10-17T17:52:14.038Z,9.47
2018-10-17T17:54:43.616Z,27.93
2018-10-17T17:57:12.362Z,9.23
2018-10-17T17:59:41.196Z,9.07
2018-10-17T18:02:09.985Z,8.90
2018-10-17T18:04:38.726Z,9.27
2018-10-17T18:07:07.521Z,9.00
2018-10-17T18:09:36.298Z,9.97
2018-10-17T18:12:05.437Z,9.67
2018-10-17T18:14:34.130Z,11.43
2018-10-17T18:17:02.984Z,11.50
2018-10-17T18:19:31.779Z,12.60
2018-10-17T18:22:00.565Z,11.00
2018-10-17T18:24:29.313Z,11.03
2018-10-17T18:26:57.995Z,10.90
2018-10-17T18:29:26.857Z,11.03
2018-10-17T18:31:55.659Z,10.67
2018-10-17T18:34:24.352Z,11.13
2018-10-17T18:36:53.288Z,11.13
2018-10-17T18:39:21.972Z,10.70
2018-10-17T18:41:50.604Z,12.27
2018-10-17T18:44:19.291Z,11.73
2018-10-17T18:46:47.954Z,11.23
2018-10-17T18:49:16.706Z,12.27
2018-10-17T18:51:45.377Z,10.67
2018-10-17T18:54:14.101Z,11.13
2018-10-17T18:56:42.729Z,11.20
2018-10-17T18:59:11.980Z,10.80
2018-10-17T19:01:40.735Z,11.03
2018-10-17T19:04:09.344Z,10.77
2018-10-17T19:06:38.056Z,11.27
2018-10-17T19:09:10.232Z,11.23
2018-10-17T19:11:38.900Z,12.17
2018-10-17T19:14:08.020Z,11.23
2018-10-17T19:16:37.318Z,12.07
2018-10-17T19:19:08.086Z,11.30
2018-10-17T19:21:37.121Z,11.77
2018-10-17T19:24:06.416Z,12.30
2018-10-17T19:26:35.102Z,12.30
2018-10-17T19:29:03.801Z,13.03
2018-10-17T19:31:32.492Z,13.73
2018-10-17T19:34:01.227Z,13.77
2018-10-17T19:36:30.019Z,12.67
2018-10-17T19:38:58.751Z,12.83
2018-10-17T19:41:27.371Z,11.53
2018-10-17T19:43:56.176Z,12.57
2018-10-17T19:46:24.846Z,11.83
2018-10-17T19:48:53.524Z,12.67
2018-10-17T19:51:22.273Z,12.47
2018-10-17T19:53:51.401Z,12.57
2018-10-17T19:56:20.053Z,12.70
2018-10-17T19:58:48.759Z,11.73
2018-10-17T20:01:18.094Z,12.43
2018-10-17T20:03:46.720Z,12.53
2018-10-17T20:06:16.551Z,11.93
2018-10-17T20:08:45.226Z,12.50
2018-10-17T20:11:13.965Z,12.00
2018-10-17T20:13:42.683Z,12.33
2018-10-17T20:16:11.458Z,12.53
2018-10-17T20:18:40.117Z,13.97
2018-10-17T20:21:08.921Z,12.60
2018-10-17T20:23:37.581Z,13.20
2018-10-17T20:26:06.454Z,12.87
2018-10-17T20:28:35.359Z,12.43
2018-10-17T20:31:04.069Z,13.07
2018-10-17T20:33:32.734Z,13.20
2018-10-17T20:36:01.481Z,13.43
2018-10-17T20:38:30.202Z,12.30
2018-10-17T20:40:58.940Z,13.40
2018-10-17T20:43:28.050Z,13.70
2018-10-17T20:45:56.706Z,14.13
2018-10-17T20:48:25.449Z,13.50
2018-10-17T20:50:54.302Z,13.30
2018-10-17T20:53:23.000Z,12.83
2018-10-17T20:55:51.812Z,12.80
2018-10-17T20:58:20.526Z,12.90
2018-10-17T21:00:49.329Z,12.53
2018-10-17T21:03:18.024Z,13.43
2018-10-17T21:05:46.693Z,14.27
2018-10-17T21:08:15.525Z,14.03
2018-10-17T21:10:44.134Z,14.23
2018-10-17T21:13:12.838Z,14.00
2018-10-17T21:15:41.662Z,13.13
2018-10-17T21:18:10.469Z,13.07
2018-10-17T21:20:39.203Z,14.73
2018-10-17T21:23:07.864Z,14.00
2018-10-17T21:25:36.525Z,14.77
2018-10-17T21:28:05.469Z,15.97
2018-10-17T21:30:34.191Z,16.93
2018-10-17T21:33:02.785Z,17.43
2018-10-17T21:35:31.618Z,15.10
2018-10-17T21:38:00.294Z,15.10
2018-10-17T21:40:28.979Z,15.67
2018-10-17T21:42:57.698Z,14.73
2018-10-17T21:45:26.478Z,16.00
2018-10-17T21:47:55.249Z,15.37
2018-10-17T21:50:23.947Z,14.97
2018-10-17T21:52:52.631Z,14.27
2018-10-17T21:55:21.275Z,14.77
2018-10-17T21:57:50.004Z,14.77
2018-10-17T22:00:18.784Z,16.13
2018-10-17T22:02:47.492Z,15.03
2018-10-17T22:05:16.159Z,14.30
2018-10-17T22:07:44.885Z,15.30
2018-10-17T22:10:13.553Z,16.17
2018-10-17T22:12:42.206Z,14.33
2018-10-17T22:15:11.466Z,14.83
2018-10-17T22:17:40.103Z,14.13
2018-10-17T22:20:08.783Z,13.73
2018-10-17T22:22:37.444Z,14.70
2018-10-17T22:25:07.804Z,13.73
2018-10-17T22:27:36.488Z,13.60
2018-10-17T22:30:08.937Z,13.83
2018-10-17T22:32:37.567Z,13.80
2018-10-17T22:35:06.605Z,13.87
2018-10-17T22:37:35.369Z,13.43
2018-10-17T22:40:04.076Z,14.07
2018-10-17T22:42:33.706Z,13.77
2018-10-17T22:45:02.407Z,14.13
2018-10-17T22:47:31.071Z,13.23
2018-10-17T22:49:59.834Z,13.27
2018-10-17T22:52:28.509Z,13.80
2018-10-17T22:54:57.195Z,12.73
2018-10-17T22:57:25.834Z,12.50
2018-10-17T22:59:54.497Z,11.77
2018-10-17T23:02:23.085Z,11.47
2018-10-17T23:04:51.802Z,11.20
2018-10-17T23:07:20.543Z,10.57
2018-10-17T23:09:49.184Z,10.37
2018-10-17T23:12:17.861Z,10.27
2018-10-17T23:14:46.515Z,10.23
2018-10-17T23:17:15.188Z,9.43
2018-10-17T23:19:43.813Z,10.10
2018-10-17T23:22:12.423Z,9.63
2018-10-17T23:24:41.104Z,11.23
2018-10-17T23:27:09.756Z,9.70
2018-10-17T23:29:38.419Z,10.23
2018-10-17T23:32:07.184Z,8.70
2018-10-17T23:34:35.801Z,9.43
2018-10-17T23:37:04.486Z,9.50
2018-10-17T23:39:33.051Z,9.53
2018-10-17T23:42:01.788Z,8.90
2018-10-17T23:44:30.444Z,8.77
2018-10-17T23:53:45.543Z,8.53
2018-10-17T23:56:14.268Z,8.63
2018-10-17T23:58:42.904Z,9.17
